Time;durP1;ratioP1;P1;durP2;ratioP2;P2;SDS_P1;SDS_P2;PMS_P1;PMS_P2;Temp;Humidity;BMP_temperature;BMP_pressure;BME280_temperature;BME280_humidity;BME280_pressure;Samples;Min_cycle;Max_cycle;Signal;HPM_P1;HPM_P2
2021/09/26 00:00:12;;;;;;;15.10;9.88;;;;;;;17.68;62.57;101108.59;5010354;28;20017;-71
2021/09/26 00:02:38;;;;;;;17.23;10.32;;;;;;;17.77;61.85;101101.81;5010798;28;20026;-72
2021/09/26 00:05:04;;;;;;;15.35;9.35;;;;;;;17.88;61.12;101115.06;5009676;28;20037;-71
2021/09/26 00:07:30;;;;;;;14.55;9.95;;;;;;;17.89;61.32;101105.47;5010815;28;20022;-71
2021/09/26 00:09:55;;;;;;;16.45;9.57;;;;;;;17.88;61.05;101103.72;5009410;28;20028;-72
2021/09/26 00:12:21;;;;;;;16.63;10.20;;;;;;;17.85;61.57;101106.28;5009495;28;20088;-71
2021/09/26 00:14:47;;;;;;;13.43;10.68;;;;;;;17.75;62.26;101113.94;5008888;28;20026;-70
2021/09/26 00:17:12;;;;;;;14.90;9.65;;;;;;;17.69;62.37;101108.59;5008925;28;20109;-71
2021/09/26 00:19:38;;;;;;;17.40;10.70;;;;;;;17.66;60.95;101105.06;5007488;28;20030;-73
2021/09/26 00:22:03;;;;;;;15.60;9.90;;;;;;;17.68;60.61;101108.59;5008687;28;20577;-72
2021/09/26 00:24:29;;;;;;;14.63;10.15;;;;;;;17.47;61.24;101109.97;5006688;28;20030;-72
2021/09/26 00:26:55;;;;;;;15.77;10.68;;;;;;;17.17;62.65;101094.59;5008335;28;20029;-71
2021/09/26 00:29:20;;;;;;;15.82;10.38;;;;;;;17.27;63.06;101104.34;5007804;28;20029;-72
2021/09/26 00:31:46;;;;;;;16.77;9.13;;;;;;;16.96;61.50;101057.66;5008019;28;20092;-71
2021/09/26 00:34:12;;;;;;;15.10;10.55;;;;;;;17.32;60.82;101107.03;5009695;28;20030;-72
2021/09/26 00:36:37;;;;;;;18.42;10.70;;;;;;;17.23;61.44;101100.78;5013040;28;20416;-74
2021/09/26 00:39:03;;;;;;;18.98;9.65;;;;;;;17.02;62.10;101093.41;5011042;28;20029;-73
2021/09/26 00:41:29;;;;;;;14.00;10.00;;;;;;;17.12;61.00;101104.91;5010367;28;20068;-71
2021/09/26 00:43:54;;;;;;;12.50;9.90;;;;;;;17.12;60.57;101097.09;5010231;28;20050;-75
2021/09/26 00:46:20;;;;;;;14.35;10.75;;;;;;;16.92;62.08;101094.97;5008570;28;20022;-73
2021/09/26 00:48:45;;;;;;;18.92;10.55;;;;;;;16.75;61.88;101062.41;5008162;28;20428;-74
2021/09/26 00:51:12;;;;;;;21.67;10.68;;;;;;;16.97;60.88;101079.41;5011505;28;20022;-73
2021/09/26 00:53:40;;;;;;;12.57;10.02;;;;;;;17.02;60.99;101092.53;5011890;28;20404;-72
2021/09/26 00:56:07;;;;;;;15.88;10.43;;;;;;;16.83;61.42;101099.94;5011588;28;20076;-73
2021/09/26 00:58:32;;;;;;;19.67;10.40;;;;;;;16.84;60.68;101093.88;5010397;28;20488;-73
2021/09/26 01:00:58;;;;;;;20.50;10.65;;;;;;;16.85;61.00;101089.53;5008802;28;20064;-73
2021/09/26 01:03:23;;;;;;;15.93;10.60;;;;;;;16.66;61.90;101078.75;5006452;28;20033;-73
2021/09/26 01:05:57;;;;;;;20.88;10.43;;;;;;;16.78;62.23;101101.59;5005306;28;20396;-72
2021/09/26 01:08:39;;;;;;;19.40;10.25;;;;;;;16.80;61.79;101095.56;5009354;28;20026;-73
2021/09/26 01:11:12;;;;;;;16.40;10.65;;;;;;;16.72;62.39;101104.06;5010937;28;20484;-72
2021/09/26 01:13:45;;;;;;;20.95;10.57;;;;;;;16.78;62.64;101106.78;5012310;28;20048;-75
2021/09/26 01:16:24;;;;;;;16.33;10.43;;;;;;;16.81;62.04;101079.06;5011283;28;20111;-71
2021/09/26 01:19:14;;;;;;;17.30;10.03;;;;;;;16.75;61.72;101084.16;5012377;28;20045;-76
2021/09/26 01:21:45;;;;;;;;;;;;;;;16.78;60.08;101104.19;5010283;28;20485;-75
2021/09/26 01:24:41;;;;;;;14.73;9.82;;;;;;;16.72;60.02;101098.84;5012811;28;19919;-77
2021/09/26 01:27:21;;;;;;;18.70;10.18;;;;;;;16.42;60.28;101060.81;5013383;28;20061;-76
2021/09/26 01:30:17;;;;;;;26.85;10.85;;;;;;;16.72;60.60;101102.31;5012934;28;20554;-75
2021/09/26 01:32:52;;;;;;;14.77;9.30;;;;;;;16.63;60.65;101078.66;5013572;28;20076;-76
2021/09/26 01:35:20;;;;;;;16.63;9.73;;;;;;;16.72;60.47;101097.09;5013176;28;20511;-72
2021/09/26 01:37:59;;;;;;;16.60;9.15;;;;;;;16.56;60.79;101088.09;5013439;28;20048;-73
2021/09/26 01:40:34;;;;;;;17.60;10.05;;;;;;;16.53;60.78;101088.00;5013289;28;20033;-76
2021/09/26 01:43:05;;;;;;;14.27;9.32;;;;;;;16.47;61.13;101108.72;4993381;28;20022;-75
2021/09/26 01:45:52;;;;;;;14.38;9.95;;;;;;;16.38;61.68;101098.97;5011689;28;20408;-75
2021/09/26 01:48:27;;;;;;;16.48;9.98;;;;;;;16.49;61.56;101101.81;5005720;28;20022;-76
2021/09/26 01:50:58;;;;;;;18.60;9.80;;;;;;;16.45;62.57;101111.28;5010927;28;20112;-75
2021/09/26 01:53:25;;;;;;;13.65;8.82;;;;;;;16.31;65.19;101103.16;5004229;28;20029;-77
2021/09/26 01:55:53;;;;;;;14.23;9.50;;;;;;;16.37;64.44;101107.63;5013314;28;20509;-76
2021/09/26 01:58:20;;;;;;;15.70;9.63;;;;;;;16.48;64.14;101113.09;5013976;28;20026;-73
2021/09/26 02:00:46;;;;;;;13.18;8.48;;;;;;;16.59;63.76;101103.78;5012468;28;20445;-77
2021/09/26 02:03:13;;;;;;;14.35;8.48;;;;;;;16.45;64.85;101084.38;5013128;28;20404;-75
2021/09/26 02:05:43;;;;;;;14.02;8.88;;;;;;;16.65;64.08;101122.16;5013657;28;20481;-73
2021/09/26 02:08:10;;;;;;;13.40;8.80;;;;;;;16.67;63.98;101114.38;5012425;28;20021;-74
2021/09/26 02:10:37;;;;;;;14.23;7.72;;;;;;;16.40;64.02;101075.53;5013718;28;20022;-78
2021/09/26 02:13:05;;;;;;;10.57;7.45;;;;;;;16.61;64.55;101115.13;5013531;28;20054;-74
2021/09/26 02:15:32;;;;;;;17.63;7.50;;;;;;;16.53;63.19;101115.81;4999020;28;20083;-77
2021/09/26 02:18:00;;;;;;;13.43;7.70;;;;;;;16.57;63.27;101115.88;5013571;28;20104;-74
2021/09/26 02:20:26;;;;;;;11.90;7.57;;;;;;;16.43;63.21;101091.25;5013455;28;20057;-79
2021/09/26 02:22:53;;;;;;;12.77;7.65;;;;;;;16.55;63.41;101115.00;5013417;28;20493;-74
2021/09/26 02:25:20;;;;;;;15.77;7.88;;;;;;;16.36;63.93;101099.78;5013329;28;20385;-73
2021/09/26 02:27:46;;;;;;;11.90;7.75;;;;;;;16.45;63.89;101113.91;4994842;28;20025;-74
2021/09/26 02:30:13;;;;;;;12.48;7.95;;;;;;;16.47;62.76;101103.50;5012640;28;20021;-73
2021/09/26 02:32:40;;;;;;;17.00;8.75;;;;;;;16.39;62.69;101097.25;5012818;28;20495;-73
2021/09/26 02:35:07;;;;;;;13.57;7.95;;;;;;;16.40;60.40;101112.00;5012667;28;20029;-73
2021/09/26 02:37:32;;;;;;;12.40;7.72;;;;;;;16.37;60.89;101105.00;5011699;28;20408;-71
2021/09/26 02:39:59;;;;;;;15.32;7.65;;;;;;;16.42;60.23;101113.81;5012947;28;20032;-75
2021/09/26 02:42:37;;;;;;;13.88;8.25;;;;;;;16.30;60.62;101104.00;5012670;28;20032;-74
2021/09/26 02:45:08;;;;;;;18.02;8.35;;;;;;;16.28;61.58;101118.69;5012846;28;20030;-74
2021/09/26 02:47:38;;;;;;;12.95;8.55;;;;;;;16.22;61.80;101115.94;5012934;28;20101;-71
2021/09/26 02:50:04;;;;;;;12.68;8.57;;;;;;;16.11;61.97;101114.81;5012515;28;20476;-71
2021/09/26 02:52:31;;;;;;;10.77;8.32;;;;;;;15.97;62.08;101117.94;5012479;28;20404;-72
2021/09/26 02:54:57;;;;;;;14.15;8.68;;;;;;;15.60;62.73;101079.66;5012628;28;20064;-71
2021/09/26 02:57:23;;;;;;;12.82;8.30;;;;;;;15.69;62.31;101085.97;5012028;28;20085;-71
2021/09/26 02:59:49;;;;;;;12.23;8.95;;;;;;;15.92;62.34;101122.16;5012574;28;20036;-74
2021/09/26 03:02:15;;;;;;;15.32;8.95;;;;;;;15.91;62.63;101117.78;5012558;28;20099;-72
2021/09/26 03:04:45;;;;;;;20.02;8.98;;;;;;;15.75;62.42;101113.91;5012465;28;20461;-70
2021/09/26 03:09:46;;;;;;;16.80;9.40;;;;;;;15.76;63.01;101113.03;5063810;23;19921;-71
2021/09/26 03:12:17;;;;;;;17.52;9.73;;;;;;;15.84;61.84;101100.28;5013210;28;20151;-71
2021/09/26 03:14:43;;;;;;;14.80;9.50;;;;;;;15.83;61.93;101096.75;5010602;28;20693;-72
2021/09/26 03:17:08;;;;;;;16.50;10.20;;;;;;;15.83;62.35;101104.56;5012281;28;20389;-74
2021/09/26 03:19:34;;;;;;;15.57;9.88;;;;;;;15.80;62.88;101111.41;5012813;28;20029;-71
2021/09/26 03:22:04;;;;;;;17.63;9.07;;;;;;;15.76;63.54;101122.56;5012360;28;20416;-72
2021/09/26 03:24:30;;;;;;;12.05;8.98;;;;;;;15.79;63.68;101123.53;5012367;28;20057;-73
2021/09/26 03:26:56;;;;;;;20.23;9.15;;;;;;;15.65;63.38;101104.97;5012689;28;20127;-75
2021/09/26 03:29:21;;;;;;;27.25;10.07;;;;;;;15.59;62.61;101097.00;5012422;28;20022;-71
2021/09/26 03:31:47;;;;;;;17.80;9.85;;;;;;;15.69;62.27;101122.41;5012434;28;20508;-71
2021/09/26 03:34:12;;;;;;;22.10;9.90;;;;;;;15.66;62.53;101113.63;5012344;28;20013;-71
2021/09/26 03:36:38;;;;;;;20.15;9.13;;;;;;;15.47;62.05;101065.44;5012203;28;20030;-71
2021/09/26 03:39:03;;;;;;;15.50;9.80;;;;;;;15.69;62.18;101111.13;5012044;28;20112;-73
2021/09/26 03:41:30;;;;;;;17.65;9.45;;;;;;;15.58;62.58;101116.06;5012660;28;20113;-72
2021/09/26 03:43:55;;;;;;;18.98;9.52;;;;;;;15.40;62.90;101105.13;5012220;28;20030;-72
2021/09/26 03:46:21;;;;;;;13.50;8.93;;;;;;;15.27;62.79;101097.00;5011902;28;20060;-73
2021/09/26 03:48:46;;;;;;;15.50;8.82;;;;;;;15.36;62.80;101111.97;5063503;23;20455;-71
2021/09/26 03:51:13;;;;;;;16.02;8.77;;;;;;;15.29;62.52;101110.94;5032139;28;20091;-71
2021/09/26 03:53:38;;;;;;;14.23;8.65;;;;;;;15.24;62.50;101106.44;5032150;28;20484;-72
2021/09/26 03:56:05;;;;;;;15.30;8.40;;;;;;;15.14;62.16;101100.09;5017806;28;20037;-73
2021/09/26 03:58:30;;;;;;;13.35;9.05;;;;;;;15.29;61.43;101113.53;5015650;28;20450;-71
2021/09/26 04:00:55;;;;;;;23.88;9.50;;;;;;;15.17;61.98;101108.00;5031624;28;20100;-74
2021/09/26 04:03:21;;;;;;;16.92;9.65;;;;;;;15.03;62.77;101112.81;5031358;28;20068;-74
2021/09/26 04:05:46;;;;;;;16.17;9.13;;;;;;;14.98;64.00;101130.84;5031771;28;20395;-74
2021/09/26 04:08:13;;;;;;;16.25;8.77;;;;;;;14.89;65.10;101122.75;5031334;28;20037;-73
2021/09/26 04:10:39;;;;;;;22.00;8.85;;;;;;;14.91;64.74;101123.72;5030956;28;20072;-74
2021/09/26 04:13:05;;;;;;;15.48;8.45;;;;;;;15.04;64.44;101122.34;5031177;28;20424;-73
2021/09/26 04:15:30;;;;;;;20.52;8.50;;;;;;;15.00;65.09;101129.19;5031802;28;20026;-71
2021/09/26 04:17:56;;;;;;;21.38;8.02;;;;;;;14.59;65.69;101113.16;5046680;28;20499;-72
2021/09/26 04:20:21;;;;;;;13.63;7.80;;;;;;;14.46;66.67;101127.50;5031183;28;20021;-72
2021/09/26 04:22:47;;;;;;;17.08;8.35;;;;;;;14.40;66.38;101097.03;5031082;28;20029;-73
2021/09/26 04:25:12;;;;;;;16.00;8.27;;;;;;;14.64;66.13;101132.41;5031282;28;20571;-72
2021/09/26 04:27:38;;;;;;;14.02;8.00;;;;;;;14.37;66.42;101089.13;5031839;28;20533;-75
2021/09/26 04:30:05;;;;;;;16.85;7.82;;;;;;;14.72;66.28;101140.47;5031111;28;20123;-74
2021/09/26 04:32:30;;;;;;;15.05;8.48;;;;;;;14.53;66.31;101102.63;5031327;28;20075;-75
2021/09/26 04:34:55;;;;;;;15.70;8.27;;;;;;;14.81;65.64;101140.75;5031357;28;20033;-75
2021/09/26 04:37:21;;;;;;;16.73;8.73;;;;;;;14.80;65.21;101143.31;5030998;28;20018;-73
2021/09/26 04:39:47;;;;;;;20.85;8.10;;;;;;;14.82;64.56;101146.84;5031256;28;20021;-75
2021/09/26 04:42:12;;;;;;;19.80;8.13;;;;;;;14.81;64.11;101145.06;5019491;28;20047;-70
2021/09/26 04:44:38;;;;;;;14.15;7.80;;;;;;;14.85;65.06;101149.50;5028843;28;20100;-73
2021/09/26 04:47:03;;;;;;;15.65;7.70;;;;;;;14.87;65.14;101164.31;5023756;28;20472;-73
2021/09/26 04:49:29;;;;;;;18.45;8.00;;;;;;;14.82;65.39;101149.44;5026063;28;20488;-74
2021/09/26 04:51:56;;;;;;;23.75;8.25;;;;;;;14.72;65.43;101133.53;5014200;28;20389;-77
2021/09/26 04:54:22;;;;;;;31.02;8.50;;;;;;;14.69;65.67;101148.16;5028852;28;20029;-74
2021/09/26 04:56:47;;;;;;;19.83;8.75;;;;;;;14.80;65.48;101158.91;5030924;28;20108;-75
2021/09/26 04:59:12;;;;;;;13.23;7.72;;;;;;;14.79;65.78;101149.31;5030843;28;20024;-72
2021/09/26 05:01:38;;;;;;;17.48;8.88;;;;;;;14.76;66.09;101142.31;5029463;28;20021;-72
2021/09/26 05:04:03;;;;;;;21.13;8.68;;;;;;;14.92;66.06;101148.00;5030716;28;20084;-73
2021/09/26 05:06:29;;;;;;;26.70;15.10;;;;;;;15.00;66.84;101160.41;5030180;28;20025;-72
2021/09/26 05:08:55;;;;;;;11.75;9.27;;;;;;;15.00;67.83;101147.41;5030534;28;20116;-73
2021/09/26 05:11:20;;;;;;;15.65;8.55;;;;;;;14.99;68.64;101161.22;5030795;28;20582;-75
2021/09/26 05:13:46;;;;;;;16.90;8.63;;;;;;;14.87;69.37;101138.31;5030452;28;20022;-72
2021/09/26 05:16:11;;;;;;;12.48;8.68;;;;;;;14.88;69.66;101147.91;5030214;28;20065;-72
2021/09/26 05:18:38;;;;;;;13.35;8.48;;;;;;;15.06;69.68;101164.00;5030691;28;20017;-71
2021/09/26 05:21:04;;;;;;;12.75;8.35;;;;;;;15.17;69.64;101167.81;5030787;28;20057;-73
2021/09/26 05:23:29;;;;;;;13.60;8.68;;;;;;;15.17;69.25;101147.00;5031241;28;20467;-74
2021/09/26 05:25:55;;;;;;;11.90;9.18;;;;;;;15.28;69.78;101163.78;5024939;28;20032;-74
2021/09/26 05:28:20;;;;;;;19.35;9.57;;;;;;;15.15;69.40;101133.97;5033608;28;20032;-73
2021/09/26 05:30:47;;;;;;;14.82;8.63;;;;;;;15.10;69.44;101124.25;5033771;28;20022;-72
2021/09/26 05:33:13;;;;;;;13.48;9.30;;;;;;;15.41;69.31;101151.13;5033588;28;20484;-72
2021/09/26 05:35:39;;;;;;;18.60;9.07;;;;;;;15.49;69.48;101158.31;5033328;28;20026;-71
2021/09/26 05:38:05;;;;;;;18.13;9.32;;;;;;;15.53;69.47;101141.94;5033975;28;20095;-73
2021/09/26 05:40:31;;;;;;;16.63;8.38;;;;;;;15.75;69.25;101159.84;5033518;28;20440;-72
2021/09/26 05:42:57;;;;;;;13.35;9.45;;;;;;;15.55;70.02;101160.19;5033601;28;20029;-73
2021/09/26 05:45:22;;;;;;;13.73;9.45;;;;;;;15.07;72.79;101170.97;5033207;28;20025;-75
2021/09/26 05:47:48;;;;;;;13.57;9.88;;;;;;;15.15;73.04;101154.78;5033529;28;20400;-73
2021/09/26 05:50:13;;;;;;;15.55;10.65;;;;;;;15.47;72.68;101157.38;5032725;28;20432;-73
2021/09/26 05:52:40;;;;;;;15.60;9.98;;;;;;;15.67;72.04;101160.53;5033604;28;20097;-72
2021/09/26 05:55:06;;;;;;;14.15;10.23;;;;;;;15.76;71.41;101159.03;5033523;28;20113;-73
2021/09/26 05:57:31;;;;;;;17.27;12.80;;;;;;;15.55;72.73;101162.78;5033662;28;20391;-73
2021/09/26 05:59:59;;;;;;;18.95;11.38;;;;;;;15.39;73.67;101156.31;5033457;28;20395;-76
2021/09/26 06:02:24;;;;;;;16.05;10.85;;;;;;;15.64;73.89;101155.25;5033415;28;20028;-73
2021/09/26 06:04:50;;;;;;;15.15;10.15;;;;;;;15.92;72.73;101162.97;5032547;28;20021;-71
2021/09/26 06:07:16;;;;;;;16.98;10.98;;;;;;;15.79;73.27;101169.53;5033307;28;20030;-74
2021/09/26 06:09:43;;;;;;;18.13;11.38;;;;;;;15.72;73.53;101157.19;5033122;28;20026;-73
2021/09/26 06:12:10;;;;;;;17.25;10.07;;;;;;;15.89;72.50;101150.75;5029341;28;20124;-73
2021/09/26 06:14:35;;;;;;;15.32;11.00;;;;;;;16.18;72.61;101148.00;5028299;28;20025;-72
2021/09/26 06:17:01;;;;;;;16.85;10.75;;;;;;;16.50;71.92;101164.41;5020939;28;20143;-74
2021/09/26 06:19:26;;;;;;;20.45;11.85;;;;;;;16.76;71.29;101168.44;5032851;28;20034;-72
2021/09/26 06:21:52;;;;;;;13.68;10.77;;;;;;;16.87;70.25;101171.31;5013951;28;20420;-73
2021/09/26 06:24:17;;;;;;;13.80;10.85;;;;;;;16.87;70.29;101177.38;5032632;28;20397;-72
2021/09/26 06:26:43;;;;;;;17.42;11.65;;;;;;;16.95;69.91;101175.88;5018887;28;20427;-73
2021/09/26 06:29:09;;;;;;;14.88;11.07;;;;;;;16.95;69.30;101155.00;5032689;28;20538;-76
2021/09/26 06:31:35;;;;;;;16.60;11.20;;;;;;;17.23;69.46;101176.47;5032728;28;20033;-75
2021/09/26 06:34:00;;;;;;;24.10;11.98;;;;;;;17.31;69.36;101163.59;5031666;28;20407;-72
2021/09/26 06:36:26;;;;;;;16.67;10.75;;;;;;;17.52;68.42;101172.69;5021047;28;20037;-72
2021/09/26 06:38:52;;;;;;;15.10;10.82;;;;;;;17.37;68.88;101170.66;5021321;28;20384;-73
2021/09/26 06:41:18;;;;;;;15.50;10.02;;;;;;;17.32;69.04;101165.38;5019046;28;20450;-73
2021/09/26 06:43:44;;;;;;;20.48;12.48;;;;;;;17.54;69.01;101169.25;5016261;28;20028;-73
2021/09/26 06:46:10;;;;;;;15.32;11.23;;;;;;;17.41;69.21;101175.09;5014046;28;20472;-75
2021/09/26 06:48:35;;;;;;;13.00;9.73;;;;;;;17.40;69.36;101142.03;5014387;28;20034;-75
2021/09/26 06:51:01;;;;;;;17.25;10.88;;;;;;;17.83;69.09;101173.28;5013469;28;20026;-73
2021/09/26 06:53:26;;;;;;;15.77;10.88;;;;;;;18.04;67.86;101163.22;5012435;28;20034;-75
2021/09/26 06:55:52;;;;;;;15.30;9.98;;;;;;;18.19;67.70;101157.38;5014733;28;20439;-75
2021/09/26 06:58:17;;;;;;;20.80;10.23;;;;;;;18.61;67.15;101168.50;5014148;28;20034;-72
2021/09/26 07:00:43;;;;;;;16.40;10.23;;;;;;;18.76;66.51;101165.25;5015589;28;20022;-75
2021/09/26 07:03:08;;;;;;;12.40;10.20;;;;;;;18.81;66.45;101163.56;5013440;28;20113;-72
2021/09/26 07:05:33;;;;;;;18.95;10.55;;;;;;;19.02;66.43;101170.88;5011976;28;20044;-71
2021/09/26 07:07:59;;;;;;;16.90;9.85;;;;;;;19.20;65.36;101167.63;5016572;28;20025;-73
2021/09/26 07:10:24;;;;;;;17.00;9.65;;;;;;;19.37;64.96;101161.72;5013493;28;20113;-74
2021/09/26 07:12:50;;;;;;;19.00;10.30;;;;;;;19.61;64.34;101160.22;5044233;28;20494;-73
2021/09/26 07:15:15;;;;;;;21.13;9.85;;;;;;;19.62;64.22;101146.28;5017278;28;20021;-72
2021/09/26 07:17:41;;;;;;;19.85;10.60;;;;;;;19.83;63.41;101167.47;5012544;28;20026;-74
2021/09/26 07:20:07;;;;;;;13.43;8.68;;;;;;;19.97;62.63;101153.63;5012489;28;20366;-73
2021/09/26 07:22:32;;;;;;;12.23;10.02;;;;;;;19.87;62.54;101135.19;5011542;28;20053;-73
2021/09/26 07:24:58;;;;;;;16.00;10.50;;;;;;;20.23;62.42;101163.47;5015948;28;20025;-73
2021/09/26 07:27:25;;;;;;;14.30;8.88;;;;;;;20.13;61.12;101108.31;5013617;28;20025;-73
2021/09/26 07:29:51;;;;;;;14.95;9.15;;;;;;;20.48;60.52;101160.16;5013888;28;20524;-74
2021/09/26 07:32:16;;;;;;;12.68;9.25;;;;;;;20.53;60.87;101168.91;5012256;28;20105;-74
2021/09/26 07:34:43;;;;;;;15.27;8.77;;;;;;;20.43;60.22;101158.38;5014365;28;20404;-73
2021/09/26 07:37:09;;;;;;;15.35;8.77;;;;;;;20.45;61.69;101162.75;5019297;28;20040;-73
2021/09/26 07:39:35;;;;;;;11.32;8.45;;;;;;;20.61;60.04;101158.50;5022567;28;20038;-72
2021/09/26 07:42:02;;;;;;;15.18;8.88;;;;;;;20.61;60.42;101139.25;5021585;28;20021;-76
2021/09/26 07:44:28;;;;;;;11.35;8.38;;;;;;;20.77;59.64;101158.63;5013615;28;20049;-76
2021/09/26 07:46:54;;;;;;;13.68;8.68;;;;;;;20.78;59.19;101152.50;5012585;28;20075;-80
2021/09/26 07:49:20;;;;;;;14.55;8.48;;;;;;;20.74;59.21;101148.97;5011623;28;20128;-75
2021/09/26 07:51:45;;;;;;;14.27;8.40;;;;;;;20.87;59.31;101155.16;5011622;28;20081;-81
2021/09/26 07:54:15;;;;;;;11.95;8.13;;;;;;;21.16;58.43;101152.69;5014073;28;20091;-72
2021/09/26 07:56:41;;;;;;;10.98;7.30;;;;;;;21.36;57.85;101151.91;5016317;28;20373;-73
2021/09/26 07:59:06;;;;;;;9.65;7.90;;;;;;;21.67;57.07;101157.28;5013508;28;20028;-72
2021/09/26 08:01:32;;;;;;;13.13;8.30;;;;;;;21.56;56.73;101138.84;5021198;28;20033;-74
2021/09/26 08:03:57;;;;;;;10.27;7.53;;;;;;;21.71;55.87;101148.50;5020014;28;20029;-72
2021/09/26 08:06:22;;;;;;;9.70;7.32;;;;;;;21.71;55.71;101150.25;5006308;28;20048;-72
2021/09/26 08:08:48;;;;;;;15.23;8.15;;;;;;;21.50;56.51;101128.28;5011843;28;20018;-72
2021/09/26 08:11:13;;;;;;;14.60;7.65;;;;;;;21.32;57.86;101122.13;5015540;28;20022;-72
2021/09/26 08:13:39;;;;;;;10.98;7.32;;;;;;;21.63;58.83;101160.75;5027047;28;20030;-70
2021/09/26 08:16:04;;;;;;;10.35;7.55;;;;;;;21.74;55.70;101139.75;5030773;28;20029;-75
2021/09/26 08:18:30;;;;;;;12.38;7.15;;;;;;;21.94;54.90;101139.75;5029952;28;20025;-72
2021/09/26 08:20:56;;;;;;;11.20;7.22;;;;;;;22.01;56.17;101144.16;5022762;28;20377;-72
2021/09/26 08:23:21;;;;;;;15.85;7.57;;;;;;;22.18;56.73;101138.00;5021316;28;20368;-71
2021/09/26 08:25:47;;;;;;;9.73;7.68;;;;;;;22.34;57.68;101131.84;5021131;28;20026;-73
2021/09/26 08:28:13;;;;;;;9.95;7.40;;;;;;;22.53;55.35;101140.66;5019812;28;20026;-71
2021/09/26 08:30:38;;;;;;;15.63;7.20;;;;;;;22.69;53.52;101138.88;5021423;28;20029;-74
2021/09/26 08:33:04;;;;;;;10.68;6.78;;;;;;;22.66;52.75;101101.16;5020780;28;20022;-72
2021/09/26 08:35:30;;;;;;;12.27;7.00;;;;;;;22.89;51.80;101133.53;5018517;28;20052;-75
2021/09/26 08:37:56;;;;;;;9.07;6.40;;;;;;;22.96;50.34;101118.56;5021737;28;20057;-72
2021/09/26 08:40:21;;;;;;;9.02;6.75;;;;;;;;;;5020523;28;20053;-71
2021/09/26 08:42:48;;;;;;;8.85;6.40;;;;;;;23.23;49.57;101114.97;5020304;28;20022;-71
2021/09/26 08:45:18;;;;;;;12.32;6.25;;;;;;;23.25;48.12;101112.31;5021658;28;20032;-71
2021/09/26 08:47:44;;;;;;;9.95;5.75;;;;;;;23.37;47.24;101109.63;5020715;28;20029;-76
2021/09/26 08:50:15;;;;;;;9.52;6.40;;;;;;;23.10;48.14;101115.88;5019846;28;20495;-72
2021/09/26 08:52:41;;;;;;;11.52;5.95;;;;;;;23.16;48.53;101109.75;5020367;28;20475;-77
2021/09/26 08:55:09;;;;;;;13.90;5.90;;;;;;;23.28;47.92;101083.34;5026206;28;20030;-75
2021/09/26 08:57:34;;;;;;;9.95;6.72;;;;;;;23.52;49.83;101105.16;5013532;28;20052;-75
2021/09/26 09:00:00;;;;;;;9.65;6.65;;;;;;;23.56;50.57;101099.88;5028760;28;20030;-74
2021/09/26 09:02:26;;;;;;;8.25;6.10;;;;;;;23.25;49.78;101065.81;5026881;28;20030;-74
2021/09/26 09:04:52;;;;;;;12.60;5.95;;;;;;;23.10;47.40;101095.69;5020355;28;21182;-76
2021/09/26 09:07:17;;;;;;;7.93;5.18;;;;;;;23.17;46.22;101091.31;5023707;28;20388;-73
2021/09/26 09:09:58;;;;;;;9.25;5.32;;;;;;;23.09;46.42;101093.06;5020646;28;20415;-74
2021/09/26 09:12:33;;;;;;;8.68;5.63;;;;;;;23.52;48.78;101089.34;5025573;28;20156;-72
2021/09/26 09:15:13;;;;;;;6.65;5.25;;;;;;;23.73;46.79;101097.09;5018634;28;20026;-75
2021/09/26 09:17:43;;;;;;;7.22;5.43;;;;;;;24.01;44.82;101090.75;5026053;28;20049;-74
2021/09/26 09:20:16;;;;;;;15.18;5.20;;;;;;;24.21;43.21;101091.44;5028862;28;20564;-73
2021/09/26 09:22:44;;;;;;;7.43;5.47;;;;;;;24.06;43.69;101083.66;5028456;28;20028;-74
2021/09/26 09:25:36;;;;;;;7.13;4.43;;;;;;;24.02;42.57;101074.91;5026101;28;20102;-73
2021/09/26 09:28:29;;;;;;;6.80;4.70;;;;;;;24.13;44.08;101082.72;5022000;28;20113;-71
2021/09/26 09:31:02;;;;;;;6.35;4.88;;;;;;;23.99;42.82;101080.22;4990193;28;20047;-76
2021/09/26 09:33:45;;;;;;;8.38;4.57;;;;;;;24.01;43.62;101073.16;4989489;28;20138;-76
2021/09/26 09:36:17;;;;;;;14.93;5.47;;;;;;;24.35;42.79;101083.38;4988893;28;20556;-77
2021/09/26 09:38:44;;;;;;;9.23;5.13;;;;;;;24.32;43.48;101046.44;4991883;28;20057;-77
2021/09/26 09:41:09;;;;;;;10.52;4.90;;;;;;;24.41;43.03;101079.78;4992206;28;20034;-75
2021/09/26 09:43:49;;;;;;;6.35;4.32;;;;;;;24.57;41.50;101066.44;4991989;28;20040;-76
2021/09/26 09:46:28;;;;;;;5.95;4.85;;;;;;;24.98;44.00;101076.50;4992177;28;20062;-76
2021/09/26 09:49:08;;;;;;;8.15;5.00;;;;;;;25.23;42.56;101070.00;4990336;28;20050;-74
2021/09/26 09:51:34;;;;;;;6.50;4.97;;;;;;;25.32;43.31;101044.34;4990714;28;20591;-74
2021/09/26 09:54:03;;;;;;;8.48;5.03;;;;;;;25.59;42.56;101063.31;4990314;28;20038;-76
2021/09/26 09:56:40;;;;;;;11.13;4.97;;;;;;;25.82;40.21;101060.31;4991582;28;20036;-74
2021/09/26 09:59:05;;;;;;;9.23;4.50;;;;;;;26.05;39.10;101055.50;4991203;28;20563;-77
2021/09/26 10:01:37;;;;;;;8.07;5.03;;;;;;;26.21;39.74;101040.25;4990189;28;20034;-76
2021/09/26 10:04:08;;;;;;;6.50;4.53;;;;;;;26.49;38.68;101048.50;4987548;28;20041;-83
2021/09/26 10:06:38;;;;;;;6.30;4.35;;;;;;;26.59;38.85;101047.44;4988154;28;20038;-78
2021/09/26 10:09:16;;;;;;;7.30;4.55;;;;;;;26.66;38.41;101042.03;5036401;28;20037;-78
2021/09/26 10:11:51;;;;;;;7.13;4.75;;;;;;;26.61;37.54;101050.06;5021940;28;20072;-79
2021/09/26 10:14:18;;;;;;;8.90;4.55;;;;;;;26.70;38.94;101035.75;5023447;28;20026;-79
2021/09/26 10:16:45;;;;;;;6.63;4.53;;;;;;;26.77;37.86;101034.75;5023089;28;20033;-78
2021/09/26 10:19:10;;;;;;;8.52;4.60;;;;;;;26.87;37.28;101020.38;5020063;28;20407;-80
2021/09/26 10:21:38;;;;;;;10.90;4.72;;;;;;;27.09;36.78;101026.06;5015756;28;20026;-78
2021/09/26 10:24:04;;;;;;;7.10;4.70;;;;;;;27.10;36.80;101003.09;5027360;28;20504;-79
2021/09/26 10:26:30;;;;;;;5.95;4.38;;;;;;;27.34;35.79;101009.59;5021175;28;20041;-77
2021/09/26 10:28:58;;;;;;;8.70;4.30;;;;;;;27.58;36.28;101028.50;5025227;28;20026;-78
2021/09/26 10:31:27;;;;;;;6.28;4.68;;;;;;;27.55;35.38;101012.63;5026365;28;20483;-78
2021/09/26 10:33:56;;;;;;;6.13;3.95;;;;;;;27.53;34.30;100996.78;5039112;28;20021;-79
2021/09/26 10:36:23;;;;;;;10.65;4.45;;;;;;;27.81;34.44;101009.31;5022341;28;20041;-79
2021/09/26 10:38:50;;;;;;;7.97;4.43;;;;;;;27.96;34.56;101004.50;5020189;28;20476;-79
2021/09/26 10:41:17;;;;;;;5.93;3.78;;;;;;;28.04;33.60;100989.28;5031084;28;20026;-79
2021/09/26 10:43:43;;;;;;;6.68;3.70;;;;;;;28.27;34.94;100995.72;5015584;28;20022;-78
2021/09/26 10:46:20;;;;;;;6.78;4.28;;;;;;;28.54;32.53;100999.38;5017127;28;20030;-76
2021/09/26 10:49:14;;;;;;;5.32;3.35;;;;;;;28.68;34.03;100998.97;5022936;28;20034;-76
2021/09/26 10:51:58;;;;;;;7.68;3.80;;;;;;;28.64;33.69;100997.31;5022111;28;20407;-77
2021/09/26 10:54:40;;;;;;;5.60;3.33;;;;;;;28.73;32.21;100994.41;5017021;28;20095;-75
2021/09/26 10:57:19;;;;;;;7.10;3.72;;;;;;;28.74;33.10;100969.56;5013917;28;20030;-76
2021/09/26 11:00:04;;;;;;;5.47;3.88;;;;;;;28.84;31.82;100964.84;5013089;28;20022;-75
2021/09/26 11:02:29;;;;;;;4.60;3.50;;;;;;;29.01;33.96;100974.91;5013221;28;20030;-76
2021/09/26 11:05:00;;;;;;;8.75;3.80;;;;;;;29.07;32.05;100966.75;5027498;28;20029;-75
2021/09/26 11:07:28;;;;;;;8.40;3.65;;;;;;;29.29;32.94;100971.41;5012452;28;20096;-76
2021/09/26 11:09:55;;;;;;;4.85;3.63;;;;;;;29.28;31.45;100967.81;5012024;28;20037;-76
2021/09/26 11:12:41;;;;;;;7.80;4.18;;;;;;;29.43;33.16;100962.97;5022322;28;20116;-76
2021/09/26 11:15:12;;;;;;;5.50;3.70;;;;;;;29.35;32.15;100944.59;5023221;28;20405;-77
2021/09/26 11:17:57;;;;;;;6.80;4.10;;;;;;;29.31;32.98;100942.94;5029069;28;20029;-77
2021/09/26 11:20:26;;;;;;;6.57;3.80;;;;;;;29.49;32.37;100944.13;5025197;28;20029;-73
2021/09/26 11:23:17;;;;;;;6.73;3.97;;;;;;;29.62;32.53;100944.56;5028685;28;20032;-73